Terminal Aerodrome Forecast
Issued by NWS

Home | Current Version | Previous Version | Graphics & Text | Print | Product List | Glossary On
Versions: 1 2 3 4 5 6 7 8 9 10 11 12 13 14 15 16 17 18 19 20 21 22 23 24 25 26
465
FTUS43 KOAX 262337 AAB
TAFCDR
TAF AMD
KCDR 262337Z 2700/2724 01008KT 4SM BR OVC015
      TEMPO 2700/2702 2SM BR OVC007
     FM270600 29008KT 1SM BR OVC015
     FM271500 33013KT P6SM BKN025
     FM271800 35014KT P6SM BKN040=

USA.gov is the U.S. government's official web portal to all federal, state and local government web resources and services.